Time;durP1;ratioP1;P1;durP2;ratioP2;P2;SDS_P1;SDS_P2;PMS_P1;PMS_P2;Temp;Humidity;BMP_temperature;BMP_pressure;BME280_temperature;BME280_humidity;BME280_pressure;Samples;Min_cycle;Max_cycle;Signal;HPM_P1;HPM_P2
2023/06/17 00:01:01;;;;;;;11.75;11.25;;;;;;;;;;4992620;28;20363;-68
2023/06/17 00:03:27;;;;;;;12.32;11.73;;;;;;;;;;4995330;28;20073;-68
2023/06/17 00:05:52;;;;;;;11.77;11.27;;;;;;;;;;4989403;28;20022;-69
2023/06/17 00:08:17;;;;;;;12.40;11.80;;;;;;;;;;4992164;28;20077;-68
2023/06/17 00:10:43;;;;;;;11.88;11.30;;;;;;;;;;4996653;28;20079;-68
2023/06/17 00:13:09;;;;;;;12.00;11.40;;;;;;;;;;4991641;28;20022;-68
2023/06/17 00:15:36;;;;;;;12.25;11.65;;;;;;;;;;4993203;28;20478;-68
2023/06/17 00:18:03;;;;;;;11.70;11.20;;;;;;;;;;4992919;28;20074;-69
2023/06/17 00:20:29;;;;;;;11.98;11.43;;;;;;;;;;4991604;28;20024;-67
2023/06/17 00:22:54;;;;;;;12.23;11.63;;;;;;;;;;4990279;28;20478;-69
2023/06/17 00:25:20;;;;;;;12.00;11.45;;;;;;;;;;4997278;28;20076;-68
2023/06/17 00:27:45;;;;;;;12.23;11.63;;;;;;;;;;4992303;28;20217;-68
2023/06/17 00:30:10;;;;;;;12.90;12.30;;;;;;;;;;4992359;28;20085;-68
2023/06/17 00:32:36;;;;;;;12.57;11.98;;;;;;;;;;4993057;28;20037;-68
2023/06/17 00:35:02;;;;;;;11.80;11.30;;;;;;;;;;4993728;28;20113;-68
2023/06/17 00:37:28;;;;;;;12.13;11.52;;;;;;;;;;4993123;28;20488;-67
2023/06/17 00:39:53;;;;;;;12.10;11.50;;;;;;;;;;4992995;28;20149;-68
2023/06/17 00:42:19;;;;;;;12.18;11.57;;;;;;;;;;4995386;28;20026;-68
2023/06/17 00:44:44;;;;;;;12.32;11.73;;;;;;;;;;4992876;28;20033;-68
2023/06/17 00:47:10;;;;;;;12.57;11.98;;;;;;;;;;4994056;28;20125;-68
2023/06/17 00:49:37;;;;;;;12.23;11.63;;;;;;;;;;4992894;28;20030;-68
2023/06/17 00:52:04;;;;;;;12.25;11.65;;;;;;;;;;4990527;28;20098;-68
2023/06/17 00:54:30;;;;;;;12.55;11.95;;;;;;;;;;4992457;28;20497;-68
2023/06/17 00:56:57;;;;;;;12.20;11.60;;;;;;;;;;4996382;28;20124;-68
2023/06/17 00:59:22;;;;;;;12.25;11.65;;;;;;;;;;4992935;28;20102;-69
2023/06/17 01:01:47;;;;;;;12.60;12.00;;;;;;;;;;4985927;28;20105;-68
2023/06/17 01:04:13;;;;;;;12.13;11.52;;;;;;;;;;4993805;28;20022;-68
2023/06/17 01:06:42;;;;;;;12.20;11.60;;;;;;;;;;4992576;28;20105;-68
2023/06/17 01:09:11;;;;;;;12.38;11.77;;;;;;;;;;4992692;28;20029;-68
2023/06/17 01:11:38;;;;;;;11.80;11.30;;;;;;;;;;4988181;28;20054;-68
2023/06/17 01:14:05;;;;;;;12.30;11.70;;;;;;;;;;4989148;28;20014;-68
2023/06/17 01:16:33;;;;;;;12.63;12.02;;;;;;;;;;4990191;28;20018;-68
2023/06/17 01:18:59;;;;;;;12.07;11.52;;;;;;;;;;4990633;28;20025;-68
2023/06/17 01:21:28;;;;;;;12.13;11.52;;;;;;;;;;4995495;28;20427;-68
2023/06/17 01:23:54;;;;;;;12.02;11.43;;;;;;;;;;4992365;28;20042;-68
2023/06/17 01:26:21;;;;;;;11.98;11.48;;;;;;;;;;4983254;28;20026;-68
2023/06/17 01:28:48;;;;;;;11.60;11.10;;;;;;;;;;4991374;28;20038;-68
2023/06/17 01:31:18;;;;;;;12.48;11.88;;;;;;;;;;4992382;28;20068;-67
2023/06/17 01:33:45;;;;;;;12.40;11.80;;;;;;;;;;4992446;28;20057;-69
2023/06/17 01:36:13;;;;;;;12.10;11.50;;;;;;;;;;4996423;28;20177;-67
2023/06/17 01:38:50;;;;;;;12.52;11.93;;;;;;;;;;4990538;28;20019;-68
2023/06/17 01:41:17;;;;;;;11.93;11.40;;;;;;;;;;4987144;28;20398;-68
2023/06/17 01:43:45;;;;;;;12.40;11.80;;;;;;;;;;4991265;28;20109;-68
2023/06/17 01:46:11;;;;;;;12.55;11.95;;;;;;;;;;4991948;28;20106;-69
2023/06/17 01:48:37;;;;;;;11.88;11.32;;;;;;;;;;4992680;28;20022;-67
2023/06/17 01:51:03;;;;;;;12.05;11.45;;;;;;;;;;4990858;28;20037;-68
2023/06/17 01:53:29;;;;;;;12.60;12.00;;;;;;;;;;4983488;28;20022;-68
2023/06/17 01:55:54;;;;;;;12.20;11.60;;;;;;;;;;4990515;28;20033;-68
2023/06/17 01:58:20;;;;;;;11.80;11.30;;;;;;;;;;4990201;28;20222;-69
2023/06/17 02:00:45;;;;;;;12.50;11.90;;;;;;;;;;4990800;28;20073;-68
2023/06/17 02:03:10;;;;;;;12.32;11.73;;;;;;;;;;4983014;28;20026;-68
2023/06/17 02:05:35;;;;;;;12.10;11.50;;;;;;;;;;4982709;28;20545;-67
2023/06/17 02:08:04;;;;;;;12.18;11.57;;;;;;;;;;4987500;28;20474;-68
2023/06/17 02:10:30;;;;;;;12.20;11.60;;;;;;;;;;4988380;28;20034;-68
2023/06/17 02:12:55;;;;;;;12.23;11.63;;;;;;;;;;4992045;28;20018;-68
2023/06/17 02:15:20;;;;;;;12.02;11.48;;;;;;;;;;4991329;28;20564;-68
2023/06/17 02:17:46;;;;;;;12.65;12.05;;;;;;;;;;4990677;28;20029;-68
2023/06/17 02:20:12;;;;;;;12.40;11.80;;;;;;;;;;4991823;28;20080;-69
2023/06/17 02:22:37;;;;;;;12.45;11.85;;;;;;;;;;4988487;28;20010;-69
2023/06/17 02:25:03;;;;;;;12.30;11.70;;;;;;;;;;4989338;28;20385;-68
2023/06/17 02:27:29;;;;;;;12.32;11.73;;;;;;;;;;4989528;28;20042;-68
2023/06/17 02:29:54;;;;;;;12.20;11.60;;;;;;;;;;4992752;28;20445;-68
2023/06/17 02:32:20;;;;;;;12.70;12.10;;;;;;;;;;4990261;28;20041;-69
2023/06/17 02:34:47;;;;;;;12.65;12.05;;;;;;;;;;4991495;28;20035;-68
2023/06/17 02:37:13;;;;;;;12.18;11.57;;;;;;;;;;4990569;28;20030;-68
2023/06/17 02:39:38;;;;;;;12.68;12.07;;;;;;;;;;4991294;28;20026;-68
2023/06/17 02:42:04;;;;;;;12.45;11.85;;;;;;;;;;4991644;28;20027;-68
2023/06/17 02:44:29;;;;;;;11.75;11.25;;;;;;;;;;4978367;28;20034;-68
2023/06/17 02:46:54;;;;;;;12.30;11.70;;;;;;;;;;4986123;28;20486;-68
2023/06/17 02:49:20;;;;;;;12.27;11.68;;;;;;;;;;4991297;28;20030;-69
2023/06/17 02:51:46;;;;;;;12.10;11.50;;;;;;;;;;4991407;28;20029;-68
2023/06/17 02:54:12;;;;;;;12.20;11.60;;;;;;;;;;4993881;28;20081;-68
2023/06/17 02:56:37;;;;;;;12.73;12.13;;;;;;;;;;4994629;28;20038;-68
2023/06/17 02:59:02;;;;;;;13.30;12.60;;;;;;;;;;4987458;28;20022;-68
2023/06/17 03:01:28;;;;;;;11.80;11.30;;;;;;;;;;4990318;28;20020;-68
2023/06/17 03:03:55;;;;;;;12.73;12.10;;;;;;;;;;4992056;28;20027;-67
2023/06/17 03:06:21;;;;;;;12.55;11.95;;;;;;;;;;4979136;28;20035;-68
2023/06/17 03:08:47;;;;;;;12.63;12.02;;;;;;;;;;4992216;28;20113;-68
2023/06/17 03:11:12;;;;;;;12.40;11.80;;;;;;;;;;4994624;28;20113;-69
2023/06/17 03:13:37;;;;;;;12.18;11.57;;;;;;;;;;4992436;28;20119;-68
2023/06/17 03:16:05;;;;;;;12.27;11.68;;;;;;;;;;4994111;28;20034;-69
2023/06/17 03:18:30;;;;;;;11.85;11.35;;;;;;;;;;4991321;28;20010;-69
2023/06/17 03:20:56;;;;;;;12.13;11.52;;;;;;;;;;4993912;28;20140;-69
2023/06/17 03:23:22;;;;;;;12.10;11.50;;;;;;;;;;4993303;28;20053;-69
2023/06/17 03:25:51;;;;;;;12.30;11.70;;;;;;;;;;4995096;28;20027;-68
2023/06/17 03:28:16;;;;;;;12.48;11.88;;;;;;;;;;4989052;28;20054;-69
2023/06/17 03:30:41;;;;;;;12.18;11.57;;;;;;;;;;4987671;28;20030;-69
2023/06/17 03:33:08;;;;;;;12.50;11.90;;;;;;;;;;4990169;28;20097;-68
2023/06/17 03:35:33;;;;;;;12.48;11.88;;;;;;;;;;4993934;28;20394;-69
2023/06/17 03:37:59;;;;;;;11.98;11.38;;;;;;;;;;4993786;28;20033;-69
2023/06/17 03:40:24;;;;;;;13.63;12.93;;;;;;;;;;5000348;28;20022;-69
2023/06/17 03:42:49;;;;;;;12.60;12.00;;;;;;;;;;4993753;28;20022;-68
2023/06/17 03:45:15;;;;;;;11.57;11.07;;;;;;;;;;4989698;28;20038;-69
2023/06/17 03:47:40;;;;;;;12.40;11.80;;;;;;;;;;4991419;28;20474;-67
2023/06/17 03:50:06;;;;;;;11.83;11.30;;;;;;;;;;4994014;28;20022;-68
2023/06/17 03:52:31;;;;;;;11.80;11.27;;;;;;;;;;4994189;28;20631;-69
2023/06/17 03:54:57;;;;;;;12.20;11.60;;;;;;;;;;4993942;28;20496;-68
2023/06/17 03:57:23;;;;;;;12.07;11.48;;;;;;;;;;4997016;28;20042;-67
2023/06/17 03:59:48;;;;;;;12.30;11.70;;;;;;;;;;4994598;28;20549;-69
2023/06/17 04:02:13;;;;;;;12.40;11.80;;;;;;;;;;4993565;28;20030;-69
2023/06/17 04:04:39;;;;;;;12.40;11.82;;;;;;;;;;4991282;28;20105;-69
2023/06/17 04:07:04;;;;;;;12.68;12.07;;;;;;;;;;4981804;28;20049;-68
2023/06/17 04:09:30;;;;;;;11.88;11.35;;;;;;;;;;4991369;28;20106;-69
2023/06/17 04:11:56;;;;;;;11.65;11.15;;;;;;;;;;4990702;28;20033;-69
2023/06/17 04:14:22;;;;;;;12.38;11.77;;;;;;;;;;4993356;28;20041;-68
2023/06/17 04:16:49;;;;;;;12.93;12.32;;;;;;;;;;4992827;28;20429;-69
2023/06/17 04:19:17;;;;;;;12.40;11.80;;;;;;;;;;4990821;28;20062;-68
2023/06/17 04:21:43;;;;;;;11.98;11.40;;;;;;;;;;4984289;28;20011;-68
2023/06/17 04:24:08;;;;;;;12.10;11.50;;;;;;;;;;4991554;28;20556;-68
2023/06/17 04:26:33;;;;;;;12.45;11.85;;;;;;;;;;4993182;28;20022;-69
2023/06/17 04:29:02;;;;;;;11.70;11.20;;;;;;;;;;4985463;28;20026;-69
2023/06/17 04:31:27;;;;;;;11.65;11.15;;;;;;;;;;4987784;28;20066;-69
2023/06/17 04:33:53;;;;;;;12.18;11.57;;;;;;;;;;4991172;28;20023;-69
2023/06/17 04:36:18;;;;;;;12.05;11.45;;;;;;;;;;4991969;28;20080;-69
2023/06/17 04:38:44;;;;;;;12.30;11.70;;;;;;;;;;4986496;28;20098;-68
2023/06/17 04:41:10;;;;;;;12.40;11.80;;;;;;;;;;4994291;28;20014;-68
2023/06/17 04:43:38;;;;;;;14.20;13.43;;;;;;;;;;4995705;28;20077;-69
2023/06/17 04:46:04;;;;;;;12.50;11.90;;;;;;;;;;4994501;28;20018;-69
2023/06/17 04:48:29;;;;;;;12.15;11.57;;;;;;;;;;4989044;28;20014;-69
2023/06/17 04:50:57;;;;;;;12.27;11.68;;;;;;;;;;4994277;28;20045;-69
2023/06/17 04:53:23;;;;;;;12.27;11.68;;;;;;;;;;4989132;28;20030;-69
2023/06/17 04:55:49;;;;;;;12.50;11.90;;;;;;;;;;4994076;28;20032;-68
2023/06/17 04:58:14;;;;;;;12.30;11.70;;;;;;;;;;4990257;28;20103;-68
2023/06/17 05:00:39;;;;;;;12.68;12.07;;;;;;;;;;4991356;28;20387;-68
2023/06/17 05:03:05;;;;;;;12.65;12.05;;;;;;;;;;4982856;28;20085;-69
2023/06/17 05:05:31;;;;;;;12.13;11.55;;;;;;;;;;4990697;28;20029;-68
2023/06/17 05:07:56;;;;;;;12.85;12.25;;;;;;;;;;4987618;28;20030;-69
2023/06/17 05:10:22;;;;;;;12.18;11.57;;;;;;;;;;4992420;28;20092;-69
2023/06/17 05:12:47;;;;;;;12.20;11.60;;;;;;;;;;4991798;28;20371;-69
2023/06/17 05:15:12;;;;;;;12.77;12.18;;;;;;;;;;4991999;28;20113;-68
2023/06/17 05:17:37;;;;;;;12.80;12.20;;;;;;;;;;4987930;28;20080;-69
2023/06/17 05:20:03;;;;;;;12.15;11.55;;;;;;;;;;4991081;28;20021;-69
2023/06/17 05:22:29;;;;;;;12.50;11.90;;;;;;;;;;4992274;28;20462;-68
2023/06/17 05:24:54;;;;;;;13.27;12.57;;;;;;;;;;4990316;28;20633;-68
2023/06/17 05:27:19;;;;;;;13.05;12.45;;;;;;;;;;4991849;28;20046;-68
2023/06/17 05:29:45;;;;;;;12.50;11.90;;;;;;;;;;4991742;28;20106;-69
2023/06/17 05:32:10;;;;;;;12.80;12.20;;;;;;;;;;4991871;28;20028;-69
2023/06/17 05:34:37;;;;;;;13.52;12.82;;;;;;;;;;4991873;28;20054;-68
2023/06/17 05:37:02;;;;;;;12.35;11.75;;;;;;;;;;4992284;28;20097;-69
2023/06/17 05:39:28;;;;;;;12.52;11.93;;;;;;;;;;4982329;28;20023;-68
2023/06/17 05:41:53;;;;;;;12.90;12.30;;;;;;;;;;4989972;28;20117;-69
2023/06/17 05:44:18;;;;;;;12.60;12.00;;;;;;;;;;4993138;28;20069;-69
2023/06/17 05:46:43;;;;;;;13.00;12.40;;;;;;;;;;4989978;28;20024;-69
2023/06/17 05:49:09;;;;;;;12.70;12.10;;;;;;;;;;4991754;28;20018;-69
2023/06/17 05:51:34;;;;;;;12.15;11.55;;;;;;;;;;4991974;28;20023;-69
2023/06/17 05:53:59;;;;;;;12.48;11.88;;;;;;;;;;4991873;28;20062;-68
2023/06/17 05:56:26;;;;;;;12.73;12.13;;;;;;;;;;4992407;28;20026;-69
2023/06/17 05:58:51;;;;;;;12.68;12.07;;;;;;;;;;4993611;28;20513;-69
2023/06/17 06:01:17;;;;;;;12.20;11.60;;;;;;;;;;4989092;28;20026;-69
2023/06/17 06:03:42;;;;;;;12.50;11.90;;;;;;;;;;4986924;28;20014;-69
2023/06/17 06:06:08;;;;;;;12.35;11.75;;;;;;;;;;4984647;28;20397;-68
2023/06/17 06:08:33;;;;;;;12.10;11.52;;;;;;;;;;4993567;28;20038;-68
2023/06/17 06:10:59;;;;;;;12.20;11.60;;;;;;;;;;4992984;28;20093;-69
2023/06/17 06:13:25;;;;;;;12.25;11.65;;;;;;;;;;4991798;28;20258;-69
2023/06/17 06:15:50;;;;;;;11.93;11.43;;;;;;;;;;4987772;28;20027;-69
2023/06/17 06:18:15;;;;;;;12.25;11.65;;;;;;;;;;4987998;28;20025;-69
2023/06/17 06:20:41;;;;;;;12.73;12.13;;;;;;;;;;4986976;28;20010;-68
2023/06/17 06:23:06;;;;;;;12.02;11.52;;;;;;;;;;4991700;28;20390;-69
2023/06/17 06:25:32;;;;;;;12.55;11.95;;;;;;;;;;4990428;28;20035;-68
2023/06/17 06:27:58;;;;;;;12.27;11.70;;;;;;;;;;4988689;28;20049;-68
2023/06/17 06:30:24;;;;;;;12.40;11.80;;;;;;;;;;4999366;28;20546;-69
2023/06/17 06:32:49;;;;;;;12.55;11.95;;;;;;;;;;4994433;28;20110;-69
2023/06/17 06:35:15;;;;;;;12.40;11.80;;;;;;;;;;4985370;28;20026;-69
2023/06/17 06:37:40;;;;;;;12.70;12.10;;;;;;;;;;4997359;28;20026;-69
2023/06/17 06:40:06;;;;;;;12.00;11.50;;;;;;;;;;4994164;28;20580;-68
2023/06/17 06:42:31;;;;;;;12.30;11.70;;;;;;;;;;4994830;28;20026;-68
2023/06/17 06:44:57;;;;;;;12.55;11.95;;;;;;;;;;4994449;28;20030;-69
2023/06/17 06:47:22;;;;;;;12.57;11.98;;;;;;;;;;4990606;28;20022;-68
2023/06/17 06:49:48;;;;;;;12.70;12.10;;;;;;;;;;4993745;28;20478;-69
2023/06/17 06:52:13;;;;;;;12.25;11.65;;;;;;;;;;4997566;28;20049;-69
2023/06/17 06:54:38;;;;;;;12.15;11.57;;;;;;;;;;4995372;28;20367;-68
2023/06/17 06:57:04;;;;;;;12.37;11.77;;;;;;;;;;4992547;28;20022;-69
2023/06/17 06:59:29;;;;;;;12.38;11.77;;;;;;;;;;4994717;28;20314;-68
2023/06/17 07:01:54;;;;;;;12.00;11.50;;;;;;;;;;4989301;28;20406;-69
2023/06/17 07:04:21;;;;;;;12.75;12.15;;;;;;;;;;4987557;28;20045;-69
2023/06/17 07:06:46;;;;;;;12.50;11.90;;;;;;;;;;4982959;28;20021;-69
2023/06/17 07:09:12;;;;;;;11.93;11.43;;;;;;;;;;4989498;28;20478;-68
2023/06/17 07:11:37;;;;;;;12.15;11.57;;;;;;;;;;4979977;28;20683;-69
2023/06/17 07:14:02;;;;;;;12.05;11.55;;;;;;;;;;4986787;28;20026;-69
2023/06/17 07:16:27;;;;;;;12.77;12.18;;;;;;;;;;4993779;28;20469;-69
2023/06/17 07:18:53;;;;;;;12.60;12.00;;;;;;;;;;4994691;28;20474;-69
2023/06/17 07:21:18;;;;;;;12.43;11.82;;;;;;;;;;4995717;28;20068;-69
2023/06/17 07:23:43;;;;;;;12.57;11.98;;;;;;;;;;4992500;28;20409;-69
2023/06/17 07:26:09;;;;;;;12.63;12.02;;;;;;;;;;4997221;28;20128;-69
2023/06/17 07:28:34;;;;;;;12.10;11.60;;;;;;;;;;4989652;28;20417;-69
2023/06/17 07:31:00;;;;;;;12.52;11.93;;;;;;;;;;4988381;28;20031;-65
2023/06/17 07:33:25;;;;;;;12.38;11.77;;;;;;;;;;4995038;28;20133;-65
2023/06/17 07:35:51;;;;;;;12.23;11.63;;;;;;;;;;4994370;28;20170;-65
2023/06/17 07:38:16;;;;;;;12.30;11.70;;;;;;;;;;4986768;28;20097;-65
2023/06/17 07:40:42;;;;;;;12.27;11.68;;;;;;;;;;4982697;28;20050;-65
2023/06/17 07:43:09;;;;;;;12.10;11.60;;;;;;;;;;4988147;28;20394;-65
2023/06/17 07:45:34;;;;;;;12.20;11.60;;;;;;;;;;4987960;28;20023;-65
2023/06/17 07:48:00;;;;;;;12.70;12.10;;;;;;;;;;4994785;28;20029;-65
2023/06/17 07:50:25;;;;;;;12.07;11.57;;;;;;;;;;4985554;28;20022;-66
2023/06/17 07:52:52;;;;;;;12.65;12.05;;;;;;;;;;4982494;28;20121;-65
2023/06/17 07:55:18;;;;;;;12.13;11.63;;;;;;;;;;4989223;28;20026;-65
2023/06/17 07:57:43;;;;;;;11.90;11.40;;;;;;;;;;4991886;28;20072;-66
2023/06/17 08:00:09;;;;;;;11.82;11.32;;;;;;;;;;4994797;28;20018;-66
2023/06/17 08:02:34;;;;;;;11.73;11.23;;;;;;;;;;4992509;28;20014;-66
2023/06/17 08:05:00;;;;;;;12.40;11.80;;;;;;;;;;4986159;28;20434;-66
2023/06/17 08:07:26;;;;;;;12.50;11.90;;;;;;;;;;4981838;28;20659;-66
2023/06/17 08:09:51;;;;;;;12.32;11.73;;;;;;;;;;4984650;28;20025;-66
2023/06/17 08:12:16;;;;;;;12.45;11.85;;;;;;;;;;4990506;28;20030;-66
2023/06/17 08:14:42;;;;;;;13.05;12.45;;;;;;;;;;4989295;28;20030;-65
2023/06/17 08:17:07;;;;;;;11.93;11.43;;;;;;;;;;4994134;28;20088;-66
2023/06/17 08:19:33;;;;;;;12.85;12.25;;;;;;;;;;4993360;28;20029;-62
2023/06/17 08:21:58;;;;;;;12.60;12.00;;;;;;;;;;4981015;28;20031;-65
2023/06/17 08:24:24;;;;;;;12.30;11.70;;;;;;;;;;4988708;28;20034;-64
2023/06/17 08:26:50;;;;;;;12.20;11.63;;;;;;;;;;4987943;28;20292;-65
2023/06/17 08:29:16;;;;;;;12.18;11.68;;;;;;;;;;4992404;28;20022;-64
2023/06/17 08:31:45;;;;;;;13.48;12.88;;;;;;;;;;4991614;28;20027;-63
2023/06/17 08:34:11;;;;;;;12.18;11.63;;;;;;;;;;4988871;28;20030;-65
2023/06/17 08:36:40;;;;;;;12.15;11.63;;;;;;;;;;4986318;28;20042;-63
2023/06/17 08:39:05;;;;;;;12.00;11.50;;;;;;;;;;4989227;28;20482;-64
2023/06/17 08:41:36;;;;;;;13.30;12.70;;;;;;;;;;4990064;28;20030;-65
2023/06/17 08:44:04;;;;;;;12.02;11.52;;;;;;;;;;4986047;28;20022;-64
2023/06/17 08:46:29;;;;;;;11.77;11.27;;;;;;;;;;4984609;28;20500;-63
2023/06/17 08:48:57;;;;;;;12.07;11.57;;;;;;;;;;4994393;28;20030;-65
2023/06/17 08:51:22;;;;;;;12.73;12.13;;;;;;;;;;4981967;28;20058;-67
2023/06/17 08:53:47;;;;;;;12.90;12.30;;;;;;;;;;4993076;28;20058;-65
2023/06/17 08:56:13;;;;;;;12.38;11.77;;;;;;;;;;4994669;28;20759;-64
2023/06/17 08:58:38;;;;;;;12.55;11.95;;;;;;;;;;4992340;28;20014;-65
2023/06/17 09:01:04;;;;;;;11.93;11.43;;;;;;;;;;4990108;28;20033;-64
2023/06/17 09:03:31;;;;;;;11.60;11.10;;;;;;;;;;4980034;28;20072;-65
2023/06/17 09:05:56;;;;;;;12.00;11.50;;;;;;;;;;4982523;28;20045;-64
2023/06/17 09:08:21;;;;;;;11.90;11.40;;;;;;;;;;4990128;28;20026;-64
2023/06/17 09:10:47;;;;;;;12.65;12.05;;;;;;;;;;4988438;28;20022;-65
2023/06/17 09:13:12;;;;;;;11.60;11.10;;;;;;;;;;4984044;28;20034;-65
2023/06/17 09:15:42;;;;;;;12.30;11.70;;;;;;;;;;4985244;28;20384;-65
2023/06/17 09:18:08;;;;;;;12.48;11.88;;;;;;;;;;4981838;28;20042;-63
2023/06/17 09:20:33;;;;;;;12.43;11.82;;;;;;;;;;4984513;28;20462;-64
2023/06/17 09:22:59;;;;;;;12.55;11.95;;;;;;;;;;4985970;28;20655;-63
2023/06/17 09:25:24;;;;;;;11.98;11.48;;;;;;;;;;4981167;28;20041;-63
2023/06/17 09:27:50;;;;;;;12.90;12.30;;;;;;;;;;4976165;28;20530;-65
2023/06/17 09:30:16;;;;;;;12.80;12.20;;;;;;;;;;4981310;28;20030;-65
2023/06/17 09:32:42;;;;;;;12.82;12.23;;;;;;;;;;4981514;28;20076;-65
2023/06/17 09:35:14;;;;;;;12.48;11.88;;;;;;;;;;4975707;28;20115;-66
2023/06/17 09:37:41;;;;;;;12.90;12.30;;;;;;;;;;4984617;28;20019;-64
2023/06/17 09:40:07;;;;;;;12.30;11.73;;;;;;;;;;4980850;28;20053;-64
2023/06/17 09:42:33;;;;;;;12.27;11.73;;;;;;;;;;4986141;28;20053;-65
2023/06/17 09:45:03;;;;;;;12.65;12.05;;;;;;;;;;4980184;28;20651;-64
2023/06/17 09:47:37;;;;;;;12.23;11.70;;;;;;;;;;4982943;28;20022;-64
2023/06/17 09:50:09;;;;;;;13.35;12.75;;;;;;;;;;4975961;28;20117;-63
2023/06/17 09:52:36;;;;;;;12.85;12.25;;;;;;;;;;4979816;28;20060;-66
2023/06/17 09:55:05;;;;;;;12.70;12.10;;;;;;;;;;4977328;28;20037;-65
2023/06/17 09:57:31;;;;;;;12.57;11.98;;;;;;;;;;4983236;28;20497;-63
2023/06/17 09:59:58;;;;;;;12.43;11.82;;;;;;;;;;4983179;28;20507;-63
2023/06/17 10:02:23;;;;;;;12.20;11.70;;;;;;;;;;4983126;28;20409;-64
2023/06/17 10:04:48;;;;;;;12.55;11.95;;;;;;;;;;4984317;28;20035;-66
2023/06/17 10:07:14;;;;;;;12.88;12.27;;;;;;;;;;4985543;28;20429;-66
2023/06/17 10:09:40;;;;;;;12.38;11.77;;;;;;;;;;4981904;28;20595;-65
2023/06/17 10:12:06;;;;;;;12.80;12.20;;;;;;;;;;4983002;28;20030;-66
2023/06/17 10:14:32;;;;;;;12.00;11.50;;;;;;;;;;4991091;28;20933;-64
2023/06/17 10:16:58;;;;;;;12.85;12.25;;;;;;;;;;4983588;28;20085;-65
2023/06/17 10:19:27;;;;;;;13.73;13.07;;;;;;;;;;4988822;28;20447;-66
2023/06/17 10:21:54;;;;;;;12.98;12.38;;;;;;;;;;4984673;28;20022;-65
2023/06/17 10:24:21;;;;;;;13.68;13.07;;;;;;;;;;4987175;28;20030;-67
2023/06/17 10:26:49;;;;;;;13.07;12.48;;;;;;;;;;4984739;28;20034;-66
2023/06/17 10:29:15;;;;;;;13.10;12.50;;;;;;;;;;4978641;28;20033;-65
2023/06/17 10:31:42;;;;;;;12.70;12.10;;;;;;;;;;4987382;28;20030;-66
2023/06/17 10:34:08;;;;;;;12.55;11.95;;;;;;;;;;4990531;28;20022;-65
2023/06/17 10:36:37;;;;;;;12.73;12.13;;;;;;;;;;4989624;28;20046;-65
2023/06/17 10:39:12;;;;;;;12.10;11.57;;;;;;;;;;4986360;28;20425;-66
2023/06/17 10:41:37;;;;;;;12.82;12.23;;;;;;;;;;4982482;28;20030;-66
2023/06/17 10:44:21;;;;;;;12.77;12.17;;;;;;;;;;4986380;28;20027;-68
2023/06/17 10:46:47;;;;;;;;;;;;;;;;;;4987471;28;20649;-68
2023/06/17 10:49:16;;;;;;;12.35;11.75;;;;;;;;;;4991965;28;19909;-68
2023/06/17 10:51:46;;;;;;;12.02;11.52;;;;;;;;;;4993003;28;20022;-68
2023/06/17 10:54:11;;;;;;;12.50;11.90;;;;;;;;;;4990331;28;20045;-67
2023/06/17 10:56:52;;;;;;;12.30;11.70;;;;;;;;;;4992526;28;20022;-67
2023/06/17 10:59:27;;;;;;;12.23;11.68;;;;;;;;;;4986822;28;20029;-67
2023/06/17 11:01:59;;;;;;;13.38;12.77;;;;;;;;;;4985624;28;20165;-67
2023/06/17 11:04:26;;;;;;;12.90;12.30;;;;;;;;;;4984976;28;20038;-67
2023/06/17 11:06:51;;;;;;;12.10;11.60;;;;;;;;;;4988971;28;20096;-67
2023/06/17 11:09:17;;;;;;;12.18;11.60;;;;;;;;;;4981125;28;20038;-67
2023/06/17 11:11:42;;;;;;;12.27;11.73;;;;;;;;;;5002027;28;20026;-67
2023/06/17 11:14:08;;;;;;;12.32;11.73;;;;;;;;;;4990071;28;20137;-66
2023/06/17 11:16:33;;;;;;;12.52;11.93;;;;;;;;;;4993183;28;20022;-67
2023/06/17 11:18:59;;;;;;;12.07;11.57;;;;;;;;;;4994521;28;20097;-67
2023/06/17 11:21:24;;;;;;;12.40;11.80;;;;;;;;;;4993589;28;20053;-66
2023/06/17 11:23:50;;;;;;;12.23;11.63;;;;;;;;;;4993965;28;20648;-66
2023/06/17 11:26:15;;;;;;;11.70;11.20;;;;;;;;;;4991213;28;20030;-67
2023/06/17 11:28:41;;;;;;;12.57;11.98;;;;;;;;;;4983659;28;20042;-67
2023/06/17 11:31:07;;;;;;;11.95;11.45;;;;;;;;;;4994016;28;20393;-68
2023/06/17 11:33:33;;;;;;;11.90;11.40;;;;;;;;;;4991507;28;20022;-66
2023/06/17 11:35:58;;;;;;;11.85;11.35;;;;;;;;;;4985114;28;20042;-67
2023/06/17 11:38:25;;;;;;;11.65;11.15;;;;;;;;;;4984447;28;20034;-67
2023/06/17 11:40:55;;;;;;;12.00;11.50;;;;;;;;;;4992226;28;20033;-68
2023/06/17 11:43:25;;;;;;;11.77;11.27;;;;;;;;;;4991383;28;20038;-67
2023/06/17 11:45:52;;;;;;;12.35;11.75;;;;;;;;;;4992933;28;20080;-66
2023/06/17 11:48:17;;;;;;;12.40;11.80;;;;;;;;;;4990807;28;20022;-67
2023/06/17 11:50:42;;;;;;;12.27;11.68;;;;;;;;;;4987957;28;20420;-66
2023/06/17 11:53:08;;;;;;;12.30;11.70;;;;;;;;;;4991913;28;20042;-66
2023/06/17 11:55:34;;;;;;;12.50;11.90;;;;;;;;;;4991678;28;20077;-67
2023/06/17 11:58:00;;;;;;;11.82;11.32;;;;;;;;;;4992965;28;20025;-67
2023/06/17 12:00:25;;;;;;;12.00;11.50;;;;;;;;;;4994262;28;20026;-67
2023/06/17 12:02:51;;;;;;;12.30;11.70;;;;;;;;;;4992242;28;20033;-68
2023/06/17 12:05:16;;;;;;;12.00;11.50;;;;;;;;;;4993480;28;20026;-67
2023/06/17 12:07:42;;;;;;;12.45;11.85;;;;;;;;;;4991325;28;20021;-67
2023/06/17 12:10:10;;;;;;;11.93;11.43;;;;;;;;;;4987594;28;20030;-67
2023/06/17 12:12:36;;;;;;;12.57;11.98;;;;;;;;;;4994513;28;20038;-67
2023/06/17 12:15:06;;;;;;;11.60;11.10;;;;;;;;;;4994928;28;20029;-66
2023/06/17 12:17:37;;;;;;;11.77;11.27;;;;;;;;;;4992390;28;20482;-66
2023/06/17 12:20:03;;;;;;;12.48;11.88;;;;;;;;;;4992096;28;20030;-66
2023/06/17 12:22:28;;;;;;;12.10;11.60;;;;;;;;;;4992812;28;20350;-67
2023/06/17 12:24:54;;;;;;;12.45;11.85;;;;;;;;;;4994099;28;20076;-64
2023/06/17 12:27:26;;;;;;;12.20;11.70;;;;;;;;;;4987059;28;20081;-68
2023/06/17 12:29:51;;;;;;;11.88;11.38;;;;;;;;;;4990395;28;20057;-67
2023/06/17 12:32:16;;;;;;;12.07;11.57;;;;;;;;;;4986531;28;20069;-67
2023/06/17 12:34:42;;;;;;;11.80;11.30;;;;;;;;;;4984034;28;20283;-66
2023/06/17 12:37:07;;;;;;;11.90;11.40;;;;;;;;;;4986447;28;20267;-65
2023/06/17 12:39:35;;;;;;;11.70;11.20;;;;;;;;;;4990474;28;20311;-67
2023/06/17 12:42:00;;;;;;;12.38;11.77;;;;;;;;;;4989271;28;20093;-67
2023/06/17 12:44:25;;;;;;;11.95;11.43;;;;;;;;;;4989454;28;20478;-66
2023/06/17 12:46:53;;;;;;;11.98;11.48;;;;;;;;;;4989950;28;20030;-67
2023/06/17 12:49:18;;;;;;;12.50;11.90;;;;;;;;;;4992940;28;20030;-68
2023/06/17 12:51:44;;;;;;;11.88;11.38;;;;;;;;;;4991649;28;20022;-66
2023/06/17 12:54:09;;;;;;;11.90;11.40;;;;;;;;;;4991223;28;20022;-65
2023/06/17 12:56:34;;;;;;;12.10;11.60;;;;;;;;;;4985506;28;20532;-67
2023/06/17 12:59:01;;;;;;;12.55;11.95;;;;;;;;;;4997849;28;20026;-66
2023/06/17 13:01:26;;;;;;;12.13;11.63;;;;;;;;;;4987316;28;20060;-66
2023/06/17 13:03:51;;;;;;;12.73;12.13;;;;;;;;;;4993690;28;20054;-66
2023/06/17 13:06:16;;;;;;;12.30;11.70;;;;;;;;;;4991987;28;20248;-68
2023/06/17 13:08:42;;;;;;;12.50;11.90;;;;;;;;;;4986764;28;20014;-66
2023/06/17 13:11:07;;;;;;;12.07;11.57;;;;;;;;;;4990480;28;20344;-66
2023/06/17 13:13:33;;;;;;;12.10;11.60;;;;;;;;;;4992765;28;20045;-67
2023/06/17 13:15:58;;;;;;;11.35;10.85;;;;;;;;;;4987370;28;20397;-67
2023/06/17 13:18:23;;;;;;;12.00;11.50;;;;;;;;;;5003008;28;20014;-67
2023/06/17 13:20:49;;;;;;;12.30;11.70;;;;;;;;;;4981700;28;20429;-67
2023/06/17 13:23:14;;;;;;;12.20;11.65;;;;;;;;;;4990807;28;20015;-68
2023/06/17 13:25:40;;;;;;;11.70;11.20;;;;;;;;;;4985218;28;20036;-68
2023/06/17 13:28:06;;;;;;;13.00;12.40;;;;;;;;;;4987108;28;20090;-67
2023/06/17 13:30:31;;;;;;;12.80;12.20;;;;;;;;;;4990914;28;20024;-67
2023/06/17 13:32:57;;;;;;;12.55;11.95;;;;;;;;;;4994369;28;20052;-67
2023/06/17 13:35:22;;;;;;;12.98;12.38;;;;;;;;;;4990282;28;20177;-67
2023/06/17 13:37:47;;;;;;;12.02;11.52;;;;;;;;;;4993475;28;20022;-67
2023/06/17 13:40:12;;;;;;;11.80;11.30;;;;;;;;;;4986783;28;20015;-67
2023/06/17 13:42:38;;;;;;;11.88;11.38;;;;;;;;;;4990245;28;20029;-67
2023/06/17 13:45:04;;;;;;;13.35;12.75;;;;;;;;;;4989871;28;20040;-67
2023/06/17 13:47:29;;;;;;;11.90;11.40;;;;;;;;;;4990051;28;20042;-67
2023/06/17 13:49:56;;;;;;;11.93;11.43;;;;;;;;;;4989604;28;20030;-65
2023/06/17 13:52:21;;;;;;;12.43;11.82;;;;;;;;;;4990288;28;20025;-67
2023/06/17 13:54:46;;;;;;;12.43;11.82;;;;;;;;;;4985107;28;20371;-67
2023/06/17 13:57:13;;;;;;;12.80;12.20;;;;;;;;;;4986318;28;20024;-67
2023/06/17 13:59:38;;;;;;;12.00;11.50;;;;;;;;;;4990099;28;20033;-66
2023/06/17 14:02:04;;;;;;;11.77;11.27;;;;;;;;;;4990436;28;20041;-67
2023/06/17 14:04:29;;;;;;;11.70;11.20;;;;;;;;;;4985346;28;20274;-67
2023/06/17 14:06:54;;;;;;;12.30;11.70;;;;;;;;;;4990710;28;20033;-67
2023/06/17 14:09:20;;;;;;;11.98;11.48;;;;;;;;;;4992128;28;20034;-67
2023/06/17 14:11:46;;;;;;;12.30;11.70;;;;;;;;;;4988345;28;20034;-68